TFFR Airport Information

Runway Information
Runway 12 Length 11499 ft width 148 ft
Elevation 5 ft Threshold 1312 ft Heading 101
Runway 30 Length 11499 ft Width 148 ft
Elevation 32 ft Threshold 820 ft Heading 281
Airport Frequencies
Type APP Name RAIZET APP Frequency 121.3 MHZ
Type ATIS Name ATIS Frequency 127.6 MHZ
Type GND Name GND Frequency 121.85 MHZ
Type TWR Name RAIZET TWR Frequency 118.4 MHZ
Airport Navaids
Type VOR-DME Name Pointe A Pitre Frequency 112900 KHZ
Type NDB Name Pointe A Pitre Frequency 385 KHZ
Airport Weather Information & NOTAM
ADDS - METARS form results

(2215 UTC 25 April 2018)
 
METAR text: TFFR 252200Z AUTO 14005KT 110V190 9999 FEW025/// OVC066/// 25/23 Q1015 TEMPO 3000 SHRA BKN018TCU BECMG 13015KT
Conditions at: TFFR (LE RAIZET , GP) observed 2200 UTC 25 April 2018
Temperature: 25.0°C (77°F)
Dewpoint: 23.0°C (73°F) [RH = 89%]
Pressure (altimeter): 29.97 inches Hg (1015.0 mb)
Winds: from the SE (140 degrees) at 6 MPH (5 knots; 2.6 m/s)
Visibility: 6 or more miles (10+ km)
Ceiling: 6600 feet AGL
Clouds: few clouds at 2500 feet AGL
overcast cloud deck at 6600 feet AGL
Weather: no significant weather observed at this time

METAR text: TFFR 252130Z AUTO 16005KT 9999 FEW019/// SCT033/// BKN046/// 25/23 Q1015 TEMPO 3000 SHRA BKN018TCU BECMG 13015KT
Conditions at: TFFR (LE RAIZET , GP) observed 2130 UTC 25 April 2018
Temperature: 25.0°C (77°F)
Dewpoint: 23.0°C (73°F) [RH = 89%]
Pressure (altimeter): 29.97 inches Hg (1015.0 mb)
Winds: from the SSE (160 degrees) at 6 MPH (5 knots; 2.6 m/s)
Visibility: 6 or more miles (10+ km)
Ceiling: 4600 feet AGL
Clouds: few clouds at 1900 feet AGL
scattered clouds at 3300 feet AGL
broken clouds at 4600 feet AGL
Weather: no significant weather observed at this time